Time;durP1;ratioP1;P1;durP2;ratioP2;P2;SDS_P1;SDS_P2;PMS_P1;PMS_P2;Temp;Humidity;BMP_temperature;BMP_pressure;BME280_temperature;BME280_humidity;BME280_pressure;Samples;Min_cycle;Max_cycle;Signal;HPM_P1;HPM_P2
2021/07/19 00:01:41;;;;;;;17.77;7.72;;;19.90;92.00;;;;;;4860237;29;20543;-74
2021/07/19 00:04:06;;;;;;;14.32;7.20;;;19.90;92.00;;;;;;4860365;29;20041;-75
2021/07/19 00:06:32;;;;;;;16.08;7.30;;;19.80;92.00;;;;;;4843687;29;20062;-75
2021/07/19 00:08:57;;;;;;;17.73;7.70;;;19.90;92.00;;;;;;4860920;29;20034;-75
2021/07/19 00:11:23;;;;;;;12.38;7.15;;;19.90;92.00;;;;;;4860219;29;20034;-75
2021/07/19 00:13:49;;;;;;;16.38;8.00;;;19.80;92.00;;;;;;4860139;29;20040;-75
2021/07/19 00:16:15;;;;;;;17.98;7.35;;;19.80;92.10;;;;;;4860251;29;20098;-75
2021/07/19 00:18:41;;;;;;;11.07;6.03;;;19.90;92.10;;;;;;4860064;29;20078;-75
2021/07/19 00:21:06;;;;;;;16.92;7.22;;;19.80;92.10;;;;;;4859476;29;20033;-75
2021/07/19 00:23:32;;;;;;;20.40;7.47;;;19.70;92.10;;;;;;4860460;29;20033;-75
2021/07/19 00:25:58;;;;;;;16.48;7.28;;;19.80;92.30;;;;;;4859935;29;20037;-76
2021/07/19 00:28:23;;;;;;;19.58;7.40;;;19.70;92.30;;;;;;4859837;29;20095;-75
2021/07/19 00:30:49;;;;;;;18.42;7.93;;;19.60;92.40;;;;;;4859868;29;20049;-74
2021/07/19 00:33:15;;;;;;;16.02;6.85;;;19.60;92.40;;;;;;4859738;29;20650;-75
2021/07/19 00:35:41;;;;;;;16.30;7.20;;;19.70;92.40;;;;;;4860187;29;20064;-75
2021/07/19 00:38:07;;;;;;;15.60;7.10;;;19.70;92.40;;;;;;4859647;29;20260;-75
2021/07/19 00:40:36;;;;;;;13.98;6.28;;;19.70;92.40;;;;;;4859769;29;20361;-76
2021/07/19 00:43:03;;;;;;;13.32;6.72;;;19.70;92.50;;;;;;4859801;29;20037;-76
2021/07/19 00:45:29;;;;;;;13.32;6.97;;;19.70;92.60;;;;;;4859786;29;20033;-77
2021/07/19 00:47:56;;;;;;;19.08;7.90;;;19.50;92.80;;;;;;4843485;29;20092;-78
2021/07/19 00:50:25;;;;;;;14.93;7.10;;;19.60;92.80;;;;;;4843147;29;20112;-78
2021/07/19 00:52:57;;;;;;;20.00;7.60;;;19.60;92.80;;;;;;4859490;29;20034;-76
2021/07/19 00:55:34;;;;;;;15.50;6.68;;;19.60;92.60;;;;;;4859508;29;20042;-77
2021/07/19 00:58:05;;;;;;;15.57;6.90;;;19.70;92.60;;;;;;4859506;29;20049;-76
2021/07/19 01:00:33;;;;;;;17.60;7.32;;;19.70;92.70;;;;;;4859516;29;20093;-76
2021/07/19 01:02:59;;;;;;;17.98;7.45;;;19.60;92.80;;;;;;4859892;29;20516;-76
2021/07/19 01:05:27;;;;;;;17.08;6.68;;;19.60;92.80;;;;;;4859473;29;20045;-76
2021/07/19 01:07:53;;;;;;;16.37;7.07;;;19.70;92.80;;;;;;4859460;29;20034;-76
2021/07/19 01:10:20;;;;;;;18.77;7.40;;;19.70;92.90;;;;;;4859350;29;20026;-76
2021/07/19 01:12:54;;;;;;;17.35;6.97;;;19.70;92.80;;;;;;4842631;29;20048;-76
2021/07/19 01:15:22;;;;;;;14.05;6.63;;;19.80;92.80;;;;;;4842883;29;20413;-77
2021/07/19 01:17:48;;;;;;;15.63;6.47;;;19.60;92.80;;;;;;4859640;29;20030;-76
2021/07/19 01:20:14;;;;;;;20.25;6.47;;;19.60;93.00;;;;;;4859238;29;20425;-77
2021/07/19 01:22:42;;;;;;;16.67;6.32;;;19.60;93.10;;;;;;4859022;29;20041;-77
2021/07/19 01:25:36;;;;;;;16.23;6.55;;;19.60;93.30;;;;;;4858940;29;20495;-78
2021/07/19 01:28:07;;;;;;;18.55;6.55;;;19.50;93.30;;;;;;4858926;29;20080;-77
2021/07/19 01:30:38;;;;;;;15.75;6.63;;;19.50;93.40;;;;;;4858968;29;20089;-75
2021/07/19 01:33:05;;;;;;;14.00;5.65;;;19.40;93.50;;;;;;4858219;29;20089;-76
2021/07/19 01:35:36;;;;;;;11.32;5.68;;;19.40;93.50;;;;;;4837172;29;20017;-77
2021/07/19 01:38:03;;;;;;;16.55;5.70;;;19.40;93.60;;;;;;4824380;29;20125;-77
2021/07/19 01:40:29;;;;;;;19.85;7.10;;;19.40;93.70;;;;;;4840443;29;20041;-78
2021/07/19 01:42:57;;;;;;;17.75;5.88;;;19.50;93.80;;;;;;4840374;29;20038;-76
2021/07/19 01:45:23;;;;;;;12.25;5.28;;;19.60;93.80;;;;;;4840460;29;20089;-76
2021/07/19 01:47:50;;;;;;;20.77;6.53;;;19.50;93.80;;;;;;4840912;29;20454;-76
2021/07/19 01:50:16;;;;;;;14.98;6.75;;;19.50;93.80;;;;;;4840403;29;20436;-78
2021/07/19 01:52:43;;;;;;;16.75;6.35;;;19.50;93.80;;;;;;4840409;29;20181;-76
2021/07/19 01:55:11;;;;;;;19.67;7.15;;;19.40;93.90;;;;;;4840256;29;20034;-78
2021/07/19 01:57:37;;;;;;;14.48;6.18;;;19.50;94.00;;;;;;4839974;29;20050;-77
2021/07/19 02:00:06;;;;;;;12.38;5.53;;;19.40;94.00;;;;;;4840147;29;20034;-77
2021/07/19 02:02:35;;;;;;;11.20;5.82;;;19.40;94.00;;;;;;4840519;29;20049;-77
2021/07/19 02:05:03;;;;;;;16.80;6.40;;;19.50;93.90;;;;;;4840232;29;20082;-75
2021/07/19 02:07:29;;;;;;;17.60;6.22;;;19.40;94.00;;;;;;4840196;29;20475;-77
2021/07/19 02:09:55;;;;;;;17.35;5.80;;;19.30;94.10;;;;;;4840179;29;20086;-76
2021/07/19 02:12:20;;;;;;;12.10;5.47;;;19.10;94.40;;;;;;4840026;29;20042;-77
2021/07/19 02:14:47;;;;;;;15.40;6.40;;;19.10;94.50;;;;;;4840390;29;20026;-76
2021/07/19 02:17:15;;;;;;;11.25;6.25;;;19.20;94.50;;;;;;4838783;29;20042;-76
2021/07/19 02:19:41;;;;;;;22.50;7.75;;;19.20;94.60;;;;;;4839154;29;20041;-75
2021/07/19 02:22:07;;;;;;;16.83;7.18;;;19.20;94.50;;;;;;4839951;29;20124;-75
2021/07/19 02:24:33;;;;;;;15.60;6.43;;;19.30;94.60;;;;;;4823835;29;20125;-76
2021/07/19 02:27:00;;;;;;;20.75;6.72;;;19.40;94.50;;;;;;4840393;29;20026;-76
2021/07/19 02:29:26;;;;;;;12.60;6.20;;;19.40;94.50;;;;;;4840120;29;20125;-76
2021/07/19 02:31:52;;;;;;;13.45;6.80;;;19.40;94.40;;;;;;4839941;29;20422;-76
2021/07/19 02:34:19;;;;;;;21.00;5.95;;;19.40;94.40;;;;;;4840053;29;20034;-75
2021/07/19 02:36:46;;;;;;;17.05;6.80;;;19.40;94.40;;;;;;4839902;29;20116;-75
2021/07/19 02:39:13;;;;;;;18.63;6.40;;;19.40;94.40;;;;;;4839654;29;20102;-75
2021/07/19 02:41:41;;;;;;;14.80;6.38;;;19.30;94.50;;;;;;4840300;29;20030;-77
2021/07/19 02:44:07;;;;;;;16.95;6.50;;;19.30;94.60;;;;;;4823412;29;20038;-75
2021/07/19 02:46:33;;;;;;;17.25;5.72;;;19.20;94.70;;;;;;4843528;29;20042;-75
2021/07/19 02:49:00;;;;;;;18.10;6.60;;;19.20;94.80;;;;;;4826698;29;20521;-76
2021/07/19 02:51:29;;;;;;;16.40;6.50;;;19.20;94.70;;;;;;4843308;29;20294;-74
2021/07/19 02:53:55;;;;;;;16.52;5.55;;;19.30;94.70;;;;;;4827439;29;20026;-75
2021/07/19 02:56:22;;;;;;;18.58;6.25;;;19.30;94.60;;;;;;4843597;29;20034;-77
2021/07/19 02:58:50;;;;;;;12.80;5.78;;;19.30;94.50;;;;;;4843074;29;20118;-75
2021/07/19 03:01:21;;;;;;;14.75;5.90;;;19.30;94.30;;;;;;4842967;29;20099;-75
2021/07/19 03:03:49;;;;;;;17.70;6.38;;;19.30;94.50;;;;;;4826176;29;20050;-76
2021/07/19 03:06:19;;;;;;;14.10;5.53;;;19.30;94.40;;;;;;4842999;29;20036;-76
2021/07/19 03:08:45;;;;;;;17.77;5.57;;;19.30;94.20;;;;;;4843589;29;20028;-76
2021/07/19 03:11:26;;;;;;;16.60;5.15;;;19.20;93.70;;;;;;4843029;29;20037;-76
2021/07/19 03:13:58;;;;;;;15.80;4.57;;;19.10;93.10;;;;;;4842972;29;20069;-75
2021/07/19 03:16:26;;;;;;;14.68;3.97;;;19.10;92.50;;;;;;4842666;29;20034;-76
2021/07/19 03:18:52;;;;;;;;;;;19.10;92.30;;;;;;4843161;29;20050;-76
2021/07/19 03:21:19;;;;;;;14.20;4.13;;;19.00;92.10;;;;;;4842632;29;19909;-74
2021/07/19 03:23:45;;;;;;;17.75;4.75;;;19.00;92.10;;;;;;4843237;29;20030;-77
2021/07/19 03:26:11;;;;;;;10.95;3.60;;;19.00;92.20;;;;;;4842690;29;20040;-76
2021/07/19 03:28:40;;;;;;;14.60;4.82;;;18.90;92.30;;;;;;4842532;29;20125;-76
2021/07/19 03:31:06;;;;;;;14.05;3.90;;;18.90;92.30;;;;;;4842346;29;20041;-75
2021/07/19 03:33:39;;;;;;;16.10;4.47;;;18.90;92.40;;;;;;4842342;29;20689;-76
2021/07/19 03:36:05;;;;;;;12.00;3.63;;;18.90;92.40;;;;;;4842545;29;20112;-76
2021/07/19 03:38:31;;;;;;;13.55;4.05;;;18.90;92.40;;;;;;4842960;29;20685;-76
2021/07/19 03:40:56;;;;;;;14.38;4.40;;;18.80;92.50;;;;;;4841237;29;20041;-76
2021/07/19 03:43:22;;;;;;;67.53;7.07;;;18.80;92.40;;;;;;4842351;29;20036;-76
2021/07/19 03:45:48;;;;;;;14.13;4.60;;;18.70;92.50;;;;;;4842272;29;20468;-76
2021/07/19 03:48:17;;;;;;;13.98;4.25;;;18.70;92.50;;;;;;4842171;29;20268;-76
2021/07/19 03:50:43;;;;;;;19.08;4.75;;;18.70;92.50;;;;;;4842846;29;20121;-76
2021/07/19 03:53:09;;;;;;;14.45;4.18;;;18.70;92.50;;;;;;4841241;29;20126;-77
2021/07/19 03:55:35;;;;;;;12.02;4.50;;;18.70;92.60;;;;;;4841824;29;20085;-77
2021/07/19 03:58:00;;;;;;;18.38;5.63;;;18.70;92.60;;;;;;4841500;29;20057;-76
2021/07/19 04:00:29;;;;;;;15.23;4.10;;;18.70;92.60;;;;;;4842320;29;20046;-76
2021/07/19 04:02:56;;;;;;;14.55;4.80;;;18.70;92.40;;;;;;4842366;29;20104;-76
2021/07/19 04:05:24;;;;;;;12.95;4.55;;;18.70;92.50;;;;;;4841954;29;20034;-78
2021/07/19 04:07:51;;;;;;;11.50;4.78;;;18.70;92.60;;;;;;4842084;29;20125;-78
2021/07/19 04:10:19;;;;;;;14.48;4.47;;;18.60;92.50;;;;;;4841668;29;20038;-78
2021/07/19 04:12:51;;;;;;;12.88;5.13;;;18.60;92.70;;;;;;4841671;29;20081;-76
2021/07/19 04:15:17;;;;;;;12.40;4.57;;;18.60;92.60;;;;;;4841595;29;20037;-77
2021/07/19 04:17:45;;;;;;;11.20;4.15;;;18.70;92.80;;;;;;4842255;29;20042;-80
2021/07/19 04:20:13;;;;;;;15.43;5.10;;;18.50;93.00;;;;;;4825788;29;20027;-78
2021/07/19 04:22:39;;;;;;;22.40;6.05;;;18.50;93.10;;;;;;4841490;29;20129;-76
2021/07/19 04:25:08;;;;;;;18.33;5.68;;;18.50;93.20;;;;;;4841955;29;20117;-76
2021/07/19 04:27:37;;;;;;;21.52;5.85;;;18.50;93.50;;;;;;4841508;29;20038;-76
2021/07/19 04:30:05;;;;;;;14.02;5.03;;;18.60;93.80;;;;;;4841555;29;20055;-76
2021/07/19 04:32:31;;;;;;;13.23;5.18;;;18.50;94.00;;;;;;4841967;29;20087;-77
2021/07/19 04:34:57;;;;;;;18.60;5.68;;;18.50;94.10;;;;;;4841478;29;20125;-75
2021/07/19 04:37:22;;;;;;;17.02;6.10;;;18.50;94.30;;;;;;4841114;29;20137;-76
2021/07/19 04:39:49;;;;;;;18.67;5.88;;;18.50;94.40;;;;;;4841397;29;20034;-76
2021/07/19 04:42:14;;;;;;;16.75;5.65;;;18.40;94.60;;;;;;4840978;29;20340;-77
2021/07/19 04:44:40;;;;;;;15.25;5.85;;;18.50;94.60;;;;;;4841812;29;20037;-77
2021/07/19 04:47:07;;;;;;;17.50;5.82;;;18.60;94.50;;;;;;4841234;29;20057;-77
2021/07/19 04:49:40;;;;;;;16.58;5.43;;;18.70;94.40;;;;;;4841261;29;20034;-77
2021/07/19 04:52:06;;;;;;;11.63;5.00;;;18.70;94.00;;;;;;4841231;29;20525;-78
2021/07/19 04:54:37;;;;;;;16.40;4.93;;;18.70;94.00;;;;;;4841298;29;20045;-77
2021/07/19 04:57:05;;;;;;;13.73;4.30;;;18.70;94.00;;;;;;4824723;29;20038;-78
2021/07/19 04:59:36;;;;;;;14.70;4.47;;;18.60;94.00;;;;;;4825545;29;20026;-77
2021/07/19 05:02:03;;;;;;;11.48;4.53;;;18.50;94.10;;;;;;4824808;29;20050;-77
2021/07/19 05:04:29;;;;;;;14.57;4.88;;;18.50;94.20;;;;;;4825008;29;20129;-76
2021/07/19 05:06:56;;;;;;;13.13;5.13;;;18.50;94.40;;;;;;4840935;29;20034;-76
2021/07/19 05:09:23;;;;;;;12.50;5.05;;;18.40;94.40;;;;;;4840619;29;20446;-79
2021/07/19 05:11:51;;;;;;;17.08;5.95;;;18.50;94.50;;;;;;4841174;29;20022;-76
2021/07/19 05:14:17;;;;;;;23.95;6.05;;;18.50;94.60;;;;;;4841142;29;20062;-77
2021/07/19 05:16:44;;;;;;;12.80;6.05;;;18.30;95.00;;;;;;4840640;29;20533;-77
2021/07/19 05:19:10;;;;;;;18.90;5.70;;;18.30;95.20;;;;;;4841168;29;20513;-76
2021/07/19 05:21:37;;;;;;;17.48;5.97;;;18.40;95.20;;;;;;4840931;29;20124;-78
2021/07/19 05:24:04;;;;;;;19.77;6.03;;;18.30;95.40;;;;;;4839717;29;20037;-77
2021/07/19 05:26:32;;;;;;;17.17;5.38;;;18.30;95.40;;;;;;4825053;29;20321;-77
2021/07/19 05:28:57;;;;;;;22.70;5.90;;;18.50;95.30;;;;;;4840704;29;20054;-77
2021/07/19 05:31:23;;;;;;;23.77;5.97;;;18.40;95.00;;;;;;4839573;29;20422;-77
2021/07/19 05:33:49;;;;;;;13.25;4.85;;;18.50;94.80;;;;;;4840455;29;20420;-77
2021/07/19 05:36:15;;;;;;;16.98;5.75;;;18.50;94.70;;;;;;4840354;29;20022;-77
2021/07/19 05:38:41;;;;;;;14.15;5.28;;;18.60;94.70;;;;;;4824781;29;20049;-77
2021/07/19 05:41:08;;;;;;;15.15;5.60;;;18.70;94.60;;;;;;4840352;29;20134;-77
2021/07/19 05:43:35;;;;;;;13.63;4.88;;;18.80;94.50;;;;;;4823681;29;20526;-76
2021/07/19 05:46:00;;;;;;;16.08;6.00;;;18.70;94.40;;;;;;4824353;29;20041;-76
2021/07/19 05:48:26;;;;;;;14.88;4.82;;;18.70;94.30;;;;;;4840009;29;20034;-75
2021/07/19 05:50:52;;;;;;;19.60;5.30;;;18.70;94.00;;;;;;4840545;29;20715;-78
2021/07/19 05:53:17;;;;;;;12.90;4.72;;;18.80;94.00;;;;;;4839986;29;20040;-75
2021/07/19 05:55:43;;;;;;;15.60;5.35;;;18.90;94.60;;;;;;4840070;29;20033;-74
2021/07/19 05:58:09;;;;;;;15.30;4.40;;;19.00;94.80;;;;;;4839675;29;20065;-73
2021/07/19 06:00:35;;;;;;;24.88;5.22;;;19.10;94.00;;;;;;4840005;29;20073;-73
2021/07/19 06:03:01;;;;;;;28.10;5.43;;;19.30;93.40;;;;;;4811485;29;20431;-73
2021/07/19 06:05:27;;;;;;;14.02;4.22;;;19.20;93.10;;;;;;4822854;29;20026;-74
2021/07/19 06:07:53;;;;;;;15.45;4.35;;;19.30;92.60;;;;;;4839993;29;20049;-75
2021/07/19 06:10:18;;;;;;;17.55;3.97;;;19.30;92.30;;;;;;4839972;29;20365;-74
2021/07/19 06:12:44;;;;;;;14.25;3.80;;;19.20;92.10;;;;;;4839844;29;20114;-71
2021/07/19 06:15:11;;;;;;;13.70;4.13;;;19.30;91.90;;;;;;4840182;29;20061;-71
2021/07/19 06:17:38;;;;;;;25.75;6.65;;;19.20;92.00;;;;;;4840214;29;20236;-73
2021/07/19 06:20:15;;;;;;;21.52;4.72;;;19.20;91.90;;;;;;4841416;29;20066;-74
2021/07/19 06:22:41;;;;;;;18.67;4.33;;;19.20;91.80;;;;;;4843608;29;20105;-74
2021/07/19 06:25:09;;;;;;;11.73;3.78;;;19.10;91.90;;;;;;4843665;29;20049;-71
2021/07/19 06:27:36;;;;;;;15.07;5.00;;;19.20;91.70;;;;;;4843590;29;20033;-72
2021/07/19 06:30:04;;;;;;;15.30;4.47;;;19.20;91.70;;;;;;4843526;29;20025;-75
2021/07/19 06:32:29;;;;;;;16.10;3.72;;;19.30;91.50;;;;;;4843685;29;20029;-75
2021/07/19 06:34:55;;;;;;;10.10;3.47;;;19.20;91.60;;;;;;4827241;29;20030;-75
2021/07/19 06:37:20;;;;;;;15.13;4.32;;;19.20;92.10;;;;;;4843628;29;20497;-75
2021/07/19 06:39:46;;;;;;;19.58;5.35;;;19.20;91.70;;;;;;4843284;29;20049;-74
2021/07/19 06:42:11;;;;;;;19.17;5.18;;;19.30;92.00;;;;;;4843220;29;20515;-76
2021/07/19 06:44:37;;;;;;;13.68;4.05;;;19.40;91.90;;;;;;4843816;29;20509;-78
2021/07/19 06:47:03;;;;;;;18.85;4.53;;;19.50;91.80;;;;;;4843465;29;20472;-78
2021/07/19 06:49:29;;;;;;;16.63;5.75;;;19.40;91.80;;;;;;4843290;29;20062;-77
2021/07/19 06:51:54;;;;;;;12.90;3.85;;;19.50;91.70;;;;;;4826881;29;20046;-80
2021/07/19 06:54:20;;;;;;;14.15;4.93;;;19.50;91.60;;;;;;4843312;29;20094;-76
2021/07/19 06:56:46;;;;;;;17.95;4.30;;;19.40;91.80;;;;;;4843743;29;20054;-78
2021/07/19 06:59:15;;;;;;;14.02;4.07;;;19.40;92.00;;;;;;4843221;29;20038;-80
2021/07/19 07:01:41;;;;;;;15.77;4.93;;;19.60;91.90;;;;;;4845099;29;20038;-75
2021/07/19 07:04:07;;;;;;;12.32;4.38;;;19.60;91.60;;;;;;4861502;29;20484;-77
2021/07/19 07:06:33;;;;;;;18.00;4.53;;;19.80;91.70;;;;;;4845045;29;20078;-78
2021/07/19 07:08:59;;;;;;;12.32;3.78;;;19.70;91.50;;;;;;4861734;29;20067;-73
2021/07/19 07:11:28;;;;;;;10.38;3.88;;;19.80;91.20;;;;;;4861556;29;20178;-78
2021/07/19 07:13:57;;;;;;;11.32;4.13;;;19.80;91.60;;;;;;4845057;29;20041;-77
2021/07/19 07:16:23;;;;;;;9.98;3.72;;;19.80;91.10;;;;;;4861319;29;20053;-77
2021/07/19 07:18:49;;;;;;;14.57;4.30;;;19.80;91.10;;;;;;4845044;29;20150;-76
2021/07/19 07:21:15;;;;;;;13.25;4.38;;;19.90;91.20;;;;;;4861239;29;20507;-77
2021/07/19 07:23:40;;;;;;;12.48;4.10;;;19.80;90.90;;;;;;4861458;29;20029;-74
2021/07/19 07:26:06;;;;;;;13.15;4.50;;;19.90;90.70;;;;;;4861188;29;20038;-76
2021/07/19 07:28:32;;;;;;;14.38;4.15;;;19.90;90.70;;;;;;4845909;29;20468;-74
2021/07/19 07:30:58;;;;;;;14.18;3.95;;;20.00;90.70;;;;;;4843608;29;20064;-78
2021/07/19 07:33:23;;;;;;;10.77;3.60;;;20.20;90.60;;;;;;4860646;29;20670;-75
2021/07/19 07:35:50;;;;;;;14.52;4.00;;;20.40;90.10;;;;;;4861292;29;20036;-78
2021/07/19 07:38:16;;;;;;;17.20;5.63;;;20.50;89.80;;;;;;4860791;29;20097;-77
2021/07/19 07:40:42;;;;;;;18.10;4.18;;;20.60;89.20;;;;;;4860762;29;20033;-74
2021/07/19 07:43:07;;;;;;;11.88;3.08;;;20.70;89.00;;;;;;4860503;29;20064;-75
2021/07/19 07:45:33;;;;;;;11.27;3.42;;;20.70;87.10;;;;;;4860854;29;20128;-74
2021/07/19 07:47:58;;;;;;;10.98;3.65;;;20.50;87.10;;;;;;4844846;29;20093;-77
2021/07/19 07:50:24;;;;;;;16.98;3.92;;;20.60;87.60;;;;;;4860735;29;20033;-74
2021/07/19 07:52:50;;;;;;;12.63;3.20;;;20.90;87.60;;;;;;4860579;29;20046;-72
2021/07/19 07:55:15;;;;;;;8.30;2.80;;;20.90;86.20;;;;;;4860599;29;20041;-74
2021/07/19 07:57:41;;;;;;;9.73;3.03;;;20.80;84.80;;;;;;4860373;29;20065;-72
2021/07/19 08:00:15;;;;;;;11.98;3.97;;;20.90;83.70;;;;;;4860589;29;20069;-75
2021/07/19 08:02:42;;;;;;;8.90;3.10;;;21.00;83.80;;;;;;4860768;29;20065;-76
2021/07/19 08:05:08;;;;;;;13.07;3.55;;;21.10;84.70;;;;;;4860318;29;20045;-80
2021/07/19 08:07:34;;;;;;;8.18;3.17;;;21.10;84.50;;;;;;4860261;29;20034;-72
2021/07/19 08:10:00;;;;;;;9.52;3.53;;;21.10;84.40;;;;;;4844071;29;20047;-73
2021/07/19 08:12:26;;;;;;;10.15;3.88;;;21.10;84.40;;;;;;4860323;29;20068;-74
2021/07/19 08:14:52;;;;;;;12.40;3.10;;;21.00;83.80;;;;;;4860636;29;20053;-74
2021/07/19 08:17:18;;;;;;;8.02;2.65;;;20.90;82.60;;;;;;4860195;29;20072;-74
2021/07/19 08:19:45;;;;;;;9.27;2.88;;;20.90;82.40;;;;;;4843889;29;20038;-74
2021/07/19 08:22:13;;;;;;;10.25;3.10;;;21.00;81.90;;;;;;4860218;29;20029;-75
2021/07/19 08:24:41;;;;;;;7.85;2.75;;;21.60;80.50;;;;;;4859983;29;20030;-75
2021/07/19 08:27:07;;;;;;;8.88;3.42;;;22.30;79.30;;;;;;4860007;29;20034;-75
2021/07/19 08:29:33;;;;;;;8.32;3.17;;;22.90;78.40;;;;;;4860510;29;20036;-77
2021/07/19 08:31:59;;;;;;;24.60;9.52;;;23.90;76.30;;;;;;4859982;29;20124;-72
2021/07/19 08:34:24;;;;;;;12.82;3.92;;;24.40;75.00;;;;;;4859979;29;20033;-73
2021/07/19 08:36:50;;;;;;;8.38;2.97;;;24.60;71.20;;;;;;4859668;29;20437;-72
2021/07/19 08:39:16;;;;;;;7.22;3.00;;;24.30;72.30;;;;;;4859770;29;20042;-73
2021/07/19 08:41:41;;;;;;;8.43;2.67;;;24.70;71.50;;;;;;4860202;29;20026;-74
2021/07/19 08:44:10;;;;;;;5.53;2.50;;;24.60;70.70;;;;;;4842549;29;20341;-72
2021/07/19 08:46:36;;;;;;;9.85;2.40;;;24.20;70.50;;;;;;4859696;29;20040;-72
2021/07/19 08:49:04;;;;;;;12.32;2.78;;;24.30;71.20;;;;;;4859856;29;20109;-72
2021/07/19 08:51:31;;;;;;;6.03;2.53;;;23.40;70.10;;;;;;4859257;29;20092;-74
2021/07/19 08:54:00;;;;;;;7.63;2.40;;;23.80;71.10;;;;;;4860063;29;20044;-72
2021/07/19 08:56:29;;;;;;;8.32;2.75;;;24.60;71.60;;;;;;4859718;29;20048;-75
2021/07/19 08:58:54;;;;;;;7.63;2.47;;;25.20;70.30;;;;;;4859469;29;20431;-77
2021/07/19 09:01:20;;;;;;;8.82;2.88;;;25.90;66.80;;;;;;4859302;29;20033;-74
2021/07/19 09:03:47;;;;;;;11.05;3.70;;;26.00;66.30;;;;;;4859168;29;20632;-73
2021/07/19 09:06:13;;;;;;;8.15;4.70;;;26.20;66.30;;;;;;4859392;29;20105;-71
2021/07/19 09:08:49;;;;;;;7.13;2.70;;;26.20;66.20;;;;;;4859863;29;20030;-72
2021/07/19 09:11:16;;;;;;;7.97;2.58;;;25.80;64.10;;;;;;4843033;29;20034;-75
2021/07/19 09:14:02;;;;;;;10.77;3.55;;;25.80;64.70;;;;;;4859197;29;20042;-76
2021/07/19 09:16:48;;;;;;;12.05;3.22;;;26.20;61.80;;;;;;4859126;29;20125;-79
2021/07/19 09:19:15;;;;;;;8.55;2.80;;;26.60;62.00;;;;;;4858739;29;20045;-73
2021/07/19 09:21:42;;;;;;;9.20;2.67;;;25.90;59.10;;;;;;4859363;29;20645;-77
2021/07/19 09:24:10;;;;;;;8.77;3.17;;;26.10;58.90;;;;;;4859145;29;20142;-74
2021/07/19 09:26:37;;;;;;;6.40;2.97;;;25.60;59.00;;;;;;4859313;29;20451;-75
2021/07/19 09:29:05;;;;;;;10.63;3.33;;;26.00;60.10;;;;;;4858975;29;20052;-74
2021/07/19 09:31:43;;;;;;;8.80;3.70;;;26.60;60.20;;;;;;4858955;29;20036;-74
2021/07/19 09:34:19;;;;;;;7.72;3.40;;;27.20;59.00;;;;;;4858954;29;20041;-77
2021/07/19 09:37:00;;;;;;;9.55;3.58;;;27.30;58.20;;;;;;4858864;29;20094;-74
2021/07/19 09:39:28;;;;;;;8.95;3.97;;;27.60;58.30;;;;;;4858828;29;20133;-73
2021/07/19 09:42:25;;;;;;;8.18;3.17;;;28.00;57.20;;;;;;4859266;29;20037;-75
2021/07/19 09:44:55;;;;;;;9.18;3.42;;;27.20;56.80;;;;;;4792782;29;20046;-74
2021/07/19 09:47:41;;;;;;;9.60;4.97;;;26.90;58.00;;;;;;4842606;29;20065;-72
2021/07/19 09:50:16;;;;;;;9.25;3.75;;;26.60;58.90;;;;;;4841959;29;20047;-76
2021/07/19 09:52:43;;;;;;;9.02;3.83;;;26.10;58.60;;;;;;4858537;29;20178;-74
2021/07/19 09:55:24;;;;;;;8.87;3.87;;;25.90;59.30;;;;;;4857898;29;20062;-76
2021/07/19 09:57:55;;;;;;;8.57;3.72;;;25.60;59.70;;;;;;4858430;29;20038;-77
2021/07/19 10:00:21;;;;;;;7.63;3.40;;;25.30;60.40;;;;;;4858465;29;20048;-81
2021/07/19 10:02:46;;;;;;;9.55;3.67;;;24.90;61.10;;;;;;4858831;29;20186;-76
2021/07/19 10:05:26;;;;;;;9.80;3.95;;;24.60;61.50;;;;;;4858704;29;20120;-72
2021/07/19 10:07:53;;;;;;;9.95;3.78;;;24.80;62.90;;;;;;4858619;29;20178;-73
2021/07/19 10:10:31;;;;;;;8.63;4.38;;;24.80;62.00;;;;;;4858644;29;20037;-72
2021/07/19 10:13:01;;;;;;;8.75;3.97;;;25.10;62.80;;;;;;4858557;29;20085;-74
2021/07/19 10:15:28;;;;;;;10.65;4.07;;;24.90;62.70;;;;;;4841984;29;20607;-73
2021/07/19 10:17:55;;;;;;;7.22;3.83;;;24.90;62.80;;;;;;4858769;29;20033;-74
2021/07/19 10:20:21;;;;;;;;;;;24.90;62.90;;;;;;4859044;29;20073;-73
2021/07/19 10:22:48;;;;;;;9.55;4.90;;;24.70;63.00;;;;;;4858654;29;20014;-74
2021/07/19 10:25:15;;;;;;;10.63;4.93;;;24.50;63.00;;;;;;4842324;29;20041;-74
2021/07/19 10:27:41;;;;;;;9.33;5.10;;;23.70;64.20;;;;;;4858080;29;20042;-73
2021/07/19 10:30:09;;;;;;;10.65;4.40;;;23.60;65.00;;;;;;4858222;29;20029;-73
2021/07/19 10:32:36;;;;;;;11.38;5.18;;;23.10;66.00;;;;;;4858577;29;20036;-72
2021/07/19 10:35:03;;;;;;;10.95;4.82;;;23.10;66.60;;;;;;4858191;29;20042;-73
2021/07/19 10:37:35;;;;;;;11.70;4.30;;;23.30;67.10;;;;;;4841666;29;20042;-71
2021/07/19 10:40:05;;;;;;;8.50;4.10;;;23.40;67.50;;;;;;4858489;29;20325;-72
2021/07/19 10:42:40;;;;;;;13.27;4.30;;;23.50;67.50;;;;;;4858171;29;20045;-73
2021/07/19 10:45:16;;;;;;;10.93;4.40;;;23.40;67.10;;;;;;4858055;29;20104;-72
2021/07/19 10:47:52;;;;;;;11.75;4.90;;;23.40;67.30;;;;;;4858561;29;20109;-71
2021/07/19 10:50:25;;;;;;;9.18;4.70;;;23.30;68.10;;;;;;4858305;29;20089;-69
2021/07/19 10:52:57;;;;;;;11.93;4.93;;;23.40;68.40;;;;;;4858186;29;20145;-73
2021/07/19 10:55:32;;;;;;;13.60;4.80;;;23.40;68.90;;;;;;4857976;29;20101;-69
2021/07/19 10:58:02;;;;;;;9.27;4.38;;;23.40;69.10;;;;;;4858268;29;20045;-68
2021/07/19 11:00:29;;;;;;;8.50;4.32;;;23.30;68.90;;;;;;4857934;29;20044;-73
2021/07/19 11:03:20;;;;;;;10.57;4.55;;;22.90;69.10;;;;;;4858125;29;20486;-71
2021/07/19 11:05:53;;;;;;;8.25;4.65;;;23.10;69.70;;;;;;4855292;29;20499;-71
2021/07/19 11:08:27;;;;;;;14.15;5.22;;;23.30;69.40;;;;;;4861559;29;20372;-72
2021/07/19 11:10:56;;;;;;;11.20;5.95;;;23.30;68.50;;;;;;4861300;29;20117;-71
2021/07/19 11:13:32;;;;;;;9.45;4.88;;;23.00;68.40;;;;;;4861307;29;20041;-74
2021/07/19 11:16:00;;;;;;;8.02;4.70;;;23.00;68.70;;;;;;4861145;29;20205;-72
2021/07/19 11:18:28;;;;;;;10.60;4.30;;;23.30;70.50;;;;;;4861369;29;20033;-73
2021/07/19 11:20:57;;;;;;;13.07;5.28;;;23.50;70.40;;;;;;4861831;29;20358;-74
2021/07/19 11:23:37;;;;;;;10.00;4.43;;;23.30;70.20;;;;;;4861164;29;20052;-72
2021/07/19 11:26:05;;;;;;;9.48;4.55;;;23.40;69.30;;;;;;4861333;29;20113;-73
2021/07/19 11:28:40;;;;;;;7.57;4.00;;;23.20;69.20;;;;;;4861091;29;20037;-74
2021/07/19 11:31:10;;;;;;;8.35;4.63;;;23.10;69.70;;;;;;4860911;29;20041;-72
2021/07/19 11:33:47;;;;;;;8.52;5.13;;;23.30;69.60;;;;;;4860826;29;20034;-72
2021/07/19 11:36:26;;;;;;;9.95;5.35;;;22.90;68.20;;;;;;4860723;29;20026;-73
2021/07/19 11:38:53;;;;;;;10.20;5.55;;;22.90;68.80;;;;;;4861299;29;20452;-71
2021/07/19 11:41:27;;;;;;;11.02;5.38;;;23.10;69.30;;;;;;4844560;29;20037;-70
2021/07/19 11:43:56;;;;;;;11.18;5.10;;;23.00;68.80;;;;;;4860666;29;20037;-70
2021/07/19 11:46:39;;;;;;;11.98;5.22;;;23.10;69.10;;;;;;4860840;29;20049;-71
2021/07/19 11:49:10;;;;;;;13.02;5.20;;;23.10;69.30;;;;;;4860864;29;20479;-70
2021/07/19 11:51:38;;;;;;;11.23;5.45;;;22.90;69.00;;;;;;4860521;29;20045;-72
2021/07/19 11:54:05;;;;;;;18.73;5.30;;;23.10;69.50;;;;;;4860663;29;20029;-71
2021/07/19 11:56:34;;;;;;;13.82;5.53;;;23.30;69.60;;;;;;4861305;29;20029;-70
2021/07/19 11:59:02;;;;;;;10.02;5.07;;;23.40;69.00;;;;;;4860639;29;20042;-71
2021/07/19 12:01:33;;;;;;;12.02;5.18;;;23.10;69.00;;;;;;4859930;29;20080;-70
2021/07/19 12:04:04;;;;;;;9.40;5.10;;;23.20;69.80;;;;;;4860800;29;20086;-71
2021/07/19 12:06:31;;;;;;;10.27;4.85;;;23.30;69.80;;;;;;4843987;29;20103;-71
2021/07/19 12:09:04;;;;;;;12.10;5.50;;;23.40;70.20;;;;;;4860743;29;20037;-70
2021/07/19 12:11:31;;;;;;;13.55;5.22;;;23.20;69.30;;;;;;4860432;29;20081;-71
2021/07/19 12:14:09;;;;;;;17.08;6.05;;;23.40;69.60;;;;;;4860323;29;20044;-69
2021/07/19 12:16:41;;;;;;;;;;;23.50;69.30;;;;;;4860689;29;20480;-72
2021/07/19 12:19:08;;;;;;;11.20;5.70;;;23.60;68.90;;;;;;4859765;29;19928;-71
2021/07/19 12:21:46;;;;;;;12.00;5.88;;;23.70;68.70;;;;;;4860013;29;20659;-73
2021/07/19 12:24:13;;;;;;;15.77;5.88;;;23.60;68.50;;;;;;4860012;29;20030;-72
2021/07/19 12:26:42;;;;;;;11.32;6.35;;;23.40;68.60;;;;;;4860445;29;20033;-71
2021/07/19 12:29:13;;;;;;;15.93;6.13;;;23.20;69.00;;;;;;4859853;29;20029;-73
2021/07/19 12:31:46;;;;;;;14.30;6.35;;;23.10;68.80;;;;;;4859904;29;20041;-71
2021/07/19 12:34:31;;;;;;;12.70;6.07;;;23.00;69.10;;;;;;4859766;29;20067;-70
2021/07/19 12:37:02;;;;;;;13.95;6.43;;;22.70;69.40;;;;;;4860063;29;20120;-72
2021/07/19 12:39:31;;;;;;;14.80;6.85;;;22.60;70.20;;;;;;4843400;29;20108;-70
2021/07/19 12:41:58;;;;;;;12.75;6.22;;;22.80;70.40;;;;;;4860206;29;20041;-71
2021/07/19 12:44:27;;;;;;;16.45;6.75;;;22.80;70.60;;;;;;4859745;29;20049;-71
2021/07/19 12:46:54;;;;;;;13.90;7.18;;;22.60;70.30;;;;;;4859671;29;20038;-70